Plainfield, NJ (07062)

4:33 AM EDT on April 26, 2015 (GMT -0400)
Fire Station #161 | | Change Station
CLOSE
Current Station
Personal Weather Station
Location: Scotch Plains, NJ
Elevation: 144 ft
Nearby Weather Stations
Active Advisory: Frost Advisory

Elev 144 ft 40.65 °N, 74.40 °W | Updated 23 seconds ago

Clear
Clear
45.0 °F
Feels Like 45 °F
N
0.0
Wind Variable Wind from NNE
Gusts 0.0 mph

Today
High -- | Low -- °F
--% Chance of Precip.
Yesterday
High -- | Low -- °F
Precip. -- in
6:03 AM 7:48 PM
First Quarter, 53% visible
Pressure 29.69 in
Visibility 10.0 miles
Clouds Clear
Windchill 45 °F
Dew Point 29 °F
Humidity 54%
Rainfall 0.00 in
Snow Depth Not available.
UV 0.0 out of 12
Pollen 10.80 out of 12
Air Quality Not available.
Flu Activity Local Activity
METAR KLDJ 260815Z AUTO 03005KT 10SM CLR 11/00 A2969 RMK AO2 T01051004

More Conditions Fewer Conditions

Pressure 29.69 in
Visibility 10.0 miles
Clouds Clear
Windchill 45 °F
Dew Point 29 °F
Humidity 54%
Rainfall 0.00 in
Snow Depth Not available.
UV 0.0 out of 12
Pollen 10.80 out of 12
Air Quality Not available.
Flu Activity Local Activity
METAR KLDJ 260815Z AUTO 03005KT 10SM CLR 11/00 A2969 RMK AO2 T01051004

More Conditions Fewer Conditions

The full scope of the disaster following a powerful 7.8-magnitude earthquake in Nepal may not come into view for days, but global charities are already sending emergency aid. Click to see how you can help.

10-Day Weather Forecast

Almanac

Astronomy

Apr. 26, 2015 Rise Set
Actual Time
Civil Twilight
Nautical Twilight
Astronomical Twilight
Moon
Length of Visible Light
Length of Day
Tomorrow will be .
, % of the Moon is Illuminated

Today's Extremes

State Highs State Lows

Community

WunderPhotos

Upload Photos

1,816,953 photos uploaded!

WunderBlogs® & News

Nearby

Air Quality

  Air Quality AQ Index Pollutant
Not available.

Snow Depth

Station Depth Elevation

Earthquake Activity

City Distance Mag. Time & Date
Minimum magnitude displayed is 2.5.

Coastal Water Temperatures

Place Temperature

Stations

Nearby Weather Stations

Station Location Temp. Windchill Dew Point Humidity Wind Precip. Elev Updated Type
                   
Frost Advisory
Statement as of 3:23 AM EDT on April 26, 2015

... Frost advisory remains in effect until 8 am EDT this morning...

* locations... much of southern Connecticut and the lower Hudson
Valley... interior portions of northeastern New Jersey... and
eastern Long Island.

* Hazards... ground temperatures falling to freezing.

* Temperatures... 30s.

* Timing... until 8 am.

* Impacts... possible damage to early season plants that are
unprotected.

Precautionary/preparedness actions...

A frost advisory means that frost is expected. Sensitive outdoor
plants should be protected.



Jmc